createdAt,value
2023-05-22T02:00:42.976Z,78869.13
2023-05-22T02:03:18.915Z,78850.13
2023-05-22T02:05:52.944Z,78887.41
2023-05-22T02:08:23.792Z,78867.06
2023-05-22T02:36:55.195Z,78895.28
2023-05-22T02:39:24.296Z,78886.66
2023-05-22T02:41:53.401Z,78889.81
2023-05-22T02:44:22.922Z,78897.22
2023-05-22T02:46:51.978Z,78893.25
2023-05-22T02:49:21.239Z,78902.25
2023-05-22T02:51:50.503Z,78875.00
2023-05-22T02:54:19.727Z,78891.66
2023-05-22T02:56:49.319Z,78884.38
2023-05-22T02:59:18.522Z,78881.78
2023-05-22T03:01:49.494Z,78893.13
2023-05-22T03:04:18.920Z,78871.66
2023-05-22T03:06:48.037Z,78874.78
2023-05-22T03:09:17.679Z,78888.75
2023-05-22T03:11:47.157Z,78872.63
2023-05-22T03:14:17.058Z,78903.50
2023-05-22T03:16:46.871Z,78906.66
2023-05-22T03:19:17.654Z,78883.69
2023-05-22T03:24:33.320Z,78907.94
2023-05-22T03:27:03.766Z,78883.53
2023-05-22T03:29:39.393Z,78908.53
2023-05-22T03:32:09.238Z,78878.50
2023-05-22T03:34:39.078Z,78866.06
2023-05-22T03:37:11.240Z,78900.56
2023-05-22T03:39:40.892Z,78914.13
2023-05-22T03:42:21.801Z,78918.94
2023-05-22T03:44:51.374Z,78916.72
2023-05-22T03:47:21.268Z,78921.56
2023-05-22T03:49:50.521Z,78920.06
2023-05-22T03:52:19.723Z,78924.03
2023-05-22T03:54:49.317Z,78926.50
2023-05-22T03:57:20.918Z,78912.50
2023-05-22T03:59:50.523Z,78919.88
2023-05-22T04:02:20.051Z,78913.38
2023-05-22T04:04:49.746Z,78927.03
2023-05-22T04:07:19.635Z,78921.50
2023-05-22T04:09:49.259Z,78914.03
2023-05-22T04:12:18.818Z,78912.34
2023-05-22T04:14:50.996Z,78930.25
2023-05-22T04:17:20.114Z,78914.13
2023-05-22T04:19:49.320Z,78931.94
2023-05-22T04:22:19.635Z,78938.81
2023-05-22T04:24:50.274Z,78929.22
2023-05-22T04:27:19.475Z,78913.50
2023-05-22T04:29:49.236Z,78922.69
2023-05-22T04:32:22.904Z,78914.31
2023-05-22T04:34:52.714Z,78931.16
2023-05-22T04:37:22.038Z,78923.63
2023-05-22T04:39:54.475Z,78939.41
2023-05-22T04:42:23.656Z,78923.09
2023-05-22T04:44:59.178Z,78925.81
2023-05-22T04:47:32.746Z,78921.75
2023-05-22T04:50:08.303Z,78942.41
2023-05-22T04:52:38.651Z,78939.00
2023-05-22T04:55:09.655Z,78941.69
2023-05-22T04:57:39.798Z,78949.88
2023-05-22T05:00:12.201Z,78941.50
2023-05-22T05:02:42.475Z,78923.66
2023-05-22T05:05:12.855Z,78953.22
2023-05-22T05:07:44.597Z,78915.16
2023-05-22T05:10:15.074Z,78952.13
2023-05-22T05:12:44.474Z,78953.25
2023-05-22T05:15:13.782Z,78945.41
2023-05-22T05:17:43.885Z,78927.38
2023-05-22T05:20:15.580Z,78942.97
2023-05-22T05:22:46.269Z,78923.53
2023-05-22T05:25:18.580Z,78931.72
2023-05-22T05:27:48.433Z,78941.06
2023-05-22T05:30:20.619Z,78936.88
2023-05-22T05:33:13.272Z,78957.34
2023-05-22T05:35:54.808Z,78932.88
2023-05-22T05:38:27.190Z,78955.06
2023-05-22T05:40:57.576Z,78913.72
2023-05-22T05:43:27.913Z,78928.81
2023-05-22T05:46:02.692Z,78943.88
2023-05-22T05:48:32.608Z,78926.81
2023-05-22T05:51:04.435Z,78903.31
2023-05-22T05:53:41.935Z,78944.34
2023-05-22T05:56:11.939Z,78956.97
2023-05-22T05:58:42.357Z,78947.97
2023-05-22T06:01:34.099Z,78945.81
2023-05-22T06:04:05.693Z,78914.19
2023-05-22T06:06:37.430Z,78950.22
2023-05-22T06:09:28.118Z,78938.28
2023-05-22T06:12:13.914Z,78931.84
2023-05-22T06:14:47.617Z,78939.94
2023-05-22T06:17:17.918Z,78948.91
2023-05-22T06:19:48.616Z,78921.75
2023-05-22T06:22:18.916Z,78936.47
2023-05-22T06:24:51.638Z,78937.69
2023-05-22T06:27:24.676Z,78945.56
2023-05-22T06:29:54.330Z,78951.16
2023-05-22T06:32:24.175Z,78928.06
2023-05-22T06:34:56.035Z,78948.38
2023-05-22T06:37:32.586Z,78925.84
2023-05-22T06:40:03.957Z,78937.22
2023-05-22T06:42:41.139Z,78910.22
2023-05-22T06:45:33.742Z,78907.91
2023-05-22T06:48:29.240Z,78927.84
2023-05-22T06:51:07.498Z,78933.31
2023-05-22T06:53:38.857Z,78942.19
2023-05-22T06:56:13.812Z,78929.31
2023-05-22T06:58:54.343Z,78929.44
2023-05-22T07:01:30.577Z,78925.69
2023-05-22T07:04:07.824Z,78937.16
2023-05-22T07:07:03.478Z,78942.00
2023-05-22T07:09:34.157Z,78945.06
2023-05-22T07:12:05.884Z,78942.56
2023-05-22T07:14:35.971Z,78931.38
2023-05-22T07:17:06.736Z,78947.16
2023-05-22T07:19:42.881Z,78926.34
2023-05-22T07:22:12.934Z,78924.38
2023-05-22T07:24:45.388Z,78926.66
2023-05-22T07:27:17.556Z,78933.69
2023-05-22T07:29:49.859Z,78906.03
2023-05-22T07:32:20.600Z,78918.25
2023-05-22T07:34:50.959Z,78932.22
2023-05-22T07:37:20.959Z,78911.34
2023-05-22T07:39:51.891Z,78927.31
2023-05-22T07:42:23.014Z,78917.59
2023-05-22T07:44:56.514Z,78924.47
2023-05-22T07:47:26.890Z,78884.00
2023-05-22T07:49:56.916Z,78901.56
2023-05-22T07:52:26.513Z,78913.25
2023-05-22T07:54:55.798Z,78908.19
2023-05-22T07:57:29.394Z,78897.91
2023-05-22T08:00:10.733Z,78897.56
2023-05-22T08:02:43.278Z,78910.75
2023-05-22T08:05:13.327Z,78922.06
2023-05-22T08:07:43.305Z,78891.00
2023-05-22T08:10:22.734Z,78852.16
2023-05-22T08:12:52.650Z,78891.88
2023-05-22T08:15:22.122Z,78897.53
2023-05-22T08:17:51.345Z,78869.50
2023-05-22T08:20:21.312Z,78899.00
2023-05-22T08:22:50.514Z,78878.72
2023-05-22T08:25:19.631Z,78891.78
2023-05-22T08:27:49.529Z,78893.44
2023-05-22T08:30:19.474Z,78896.75
2023-05-22T08:32:49.357Z,78887.88
2023-05-22T08:35:20.570Z,78873.69
2023-05-22T08:37:49.891Z,78886.34
2023-05-22T08:40:22.530Z,78876.53
2023-05-22T08:42:55.392Z,78880.91
2023-05-22T08:45:27.070Z,78888.41
2023-05-22T08:47:58.805Z,78803.53
2023-05-22T08:50:28.908Z,78877.13
2023-05-22T08:53:02.710Z,78873.00
2023-05-22T08:55:32.710Z,78879.22
2023-05-22T08:58:02.558Z,78860.06
2023-05-22T09:00:32.990Z,78859.28
2023-05-22T09:03:02.221Z,78869.75
2023-05-22T09:05:31.472Z,78887.28
2023-05-22T09:08:08.474Z,78843.75
2023-05-22T09:10:46.116Z,78888.47
2023-05-22T09:13:26.361Z,78889.25
2023-05-22T09:16:16.150Z,78901.00
2023-05-22T09:18:47.575Z,78869.94
2023-05-22T09:21:28.659Z,78894.31
2023-05-22T09:24:02.473Z,78886.81
2023-05-22T09:26:33.916Z,78883.94
2023-05-22T09:29:04.041Z,78885.44
2023-05-22T09:31:33.492Z,78871.94
2023-05-22T09:34:03.221Z,78887.56
2023-05-22T09:36:34.593Z,78885.22
2023-05-22T09:39:05.879Z,78903.31
2023-05-22T09:41:41.598Z,78875.25
2023-05-22T09:44:15.046Z,78862.00
2023-05-22T09:46:47.494Z,78868.72
2023-05-22T09:49:17.707Z,78881.91
2023-05-22T09:51:50.599Z,78878.28
2023-05-22T09:54:22.836Z,78874.91
2023-05-22T09:56:52.457Z,78877.19
2023-05-22T09:59:34.118Z,78892.47
2023-05-22T10:02:03.851Z,78880.34
2023-05-22T10:04:35.290Z,78877.25
2023-05-22T10:07:05.496Z,78861.41
2023-05-22T10:09:38.399Z,78886.09
2023-05-22T10:12:10.017Z,78856.56
2023-05-22T10:14:39.359Z,78867.34
2023-05-22T10:17:11.151Z,78866.84
2023-05-22T10:19:43.903Z,78872.88
2023-05-22T10:22:21.800Z,78867.44
2023-05-22T10:24:52.198Z,78872.03
2023-05-22T10:27:22.276Z,78876.00
2023-05-22T10:30:05.162Z,78874.88
2023-05-22T10:36:05.323Z,78877.66
2023-05-22T10:38:58.940Z,78874.25
2023-05-22T10:41:30.922Z,78871.53
2023-05-22T10:44:00.118Z,78855.06
2023-05-22T10:46:37.973Z,78867.38
2023-05-22T10:49:07.163Z,78848.06
2023-05-22T10:51:36.997Z,78869.34
2023-05-22T10:54:06.589Z,78871.06
2023-05-22T10:56:39.159Z,78849.22
2023-05-22T10:59:09.081Z,78849.25
2023-05-22T11:01:39.176Z,78863.94
2023-05-22T11:04:19.964Z,78846.81
2023-05-22T11:07:09.301Z,78853.25
2023-05-22T11:09:49.625Z,78849.28
2023-05-22T11:12:27.603Z,78838.72
2023-05-22T11:15:09.082Z,78832.72
2023-05-22T11:17:41.357Z,78847.69
2023-05-22T11:20:14.968Z,78844.56
2023-05-22T11:22:51.323Z,78844.03
2023-05-22T11:25:21.619Z,78838.38
2023-05-22T11:27:51.016Z,78825.31
2023-05-22T11:30:20.682Z,78845.00
2023-05-22T11:32:50.318Z,78811.53
2023-05-22T11:35:24.255Z,78839.81
2023-05-22T11:37:57.406Z,78819.66
2023-05-22T11:40:30.846Z,78813.38
2023-05-22T11:43:00.005Z,78820.13
2023-05-22T11:45:29.329Z,78816.56
2023-05-22T11:47:58.812Z,78825.63
2023-05-22T11:50:40.832Z,78820.91
2023-05-22T11:53:10.803Z,78828.19
2023-05-22T11:55:40.394Z,78808.69
2023-05-22T11:58:09.426Z,78818.16
2023-05-22T12:00:39.686Z,78796.50
2023-05-22T12:03:09.090Z,78790.16
2023-05-22T12:05:39.238Z,78796.28
2023-05-22T12:08:08.674Z,78812.97
2023-05-22T12:10:38.219Z,78823.50
2023-05-22T12:13:07.632Z,78824.34
2023-05-22T12:15:37.235Z,78798.25
2023-05-22T12:18:10.721Z,78843.81
2023-05-22T12:20:44.995Z,78804.84
2023-05-22T12:23:27.772Z,78835.72
2023-05-22T12:26:10.040Z,78831.88
2023-05-22T12:28:40.596Z,78810.16
2023-05-22T12:31:10.013Z,78821.81
2023-05-22T12:33:41.927Z,78836.44
2023-05-22T12:36:11.882Z,78793.03
2023-05-22T12:38:42.200Z,78803.66
2023-05-22T12:41:11.618Z,78835.06
2023-05-22T12:43:41.069Z,78828.56
2023-05-22T12:46:10.479Z,78802.81
2023-05-22T12:48:39.603Z,78832.25
2023-05-22T12:51:10.516Z,78836.56
2023-05-22T12:53:39.809Z,78820.81
2023-05-22T12:56:09.478Z,78794.53
2023-05-22T12:58:38.756Z,78811.28
2023-05-22T13:01:07.893Z,78862.31
2023-05-22T13:03:38.447Z,78839.06
2023-05-22T13:06:07.576Z,78841.91
2023-05-22T13:08:37.138Z,78842.56
2023-05-22T13:11:07.196Z,78869.09
2023-05-22T13:13:36.437Z,78837.06
2023-05-22T13:16:05.984Z,78855.59
2023-05-22T13:18:35.292Z,78840.06
2023-05-22T13:21:04.615Z,78863.63
2023-05-22T13:23:33.721Z,78854.63
2023-05-22T13:26:03.338Z,78874.25
2023-05-22T13:28:32.492Z,78866.53
2023-05-22T13:31:01.993Z,78768.75
2023-05-22T13:33:31.050Z,78822.00
2023-05-22T13:36:01.069Z,78896.22
2023-05-22T13:38:30.433Z,78862.81
2023-05-22T13:41:00.205Z,78883.34
2023-05-22T13:43:29.395Z,78879.63
2023-05-22T13:45:58.616Z,78887.84
2023-05-22T13:48:28.357Z,78903.50
2023-05-22T13:50:57.796Z,78908.66
2023-05-22T13:53:27.156Z,78897.16
2023-05-22T13:55:57.723Z,78904.94
2023-05-22T13:58:26.919Z,78868.63
2023-05-22T14:00:56.310Z,78895.34
2023-05-22T14:03:26.351Z,78908.94
2023-05-22T14:05:55.981Z,78895.16
2023-05-22T14:08:26.713Z,78897.13
2023-05-22T14:10:56.760Z,78894.84
2023-05-22T14:13:25.947Z,78892.56
2023-05-22T14:15:55.376Z,78910.59
2023-05-22T14:18:24.704Z,78876.41
2023-05-22T14:20:55.117Z,78907.00
2023-05-22T14:23:24.675Z,78912.97
2023-05-22T14:25:53.802Z,78886.16
2023-05-22T14:28:23.398Z,78894.72
2023-05-22T14:30:53.040Z,78856.16
2023-05-22T14:33:22.608Z,78898.16
2023-05-22T14:35:52.689Z,78881.44
2023-05-22T14:38:22.110Z,78891.94
2023-05-22T14:40:52.269Z,78901.78
2023-05-22T14:43:21.387Z,78885.41
2023-05-22T14:45:51.290Z,78899.81
2023-05-22T14:48:20.592Z,78884.34
